Maizuru Bishamon — 7JHP — position and weather

sailwx.info

Track history (hours):
 
Tides and Currents Weather Stations Pressure Air Temp Water Temp Dewpoint Dewpoint Depression Visibility Wind Speed Wind Dir Waves Ship Positions

Maizuru Bishamon

Last reported at 2017-Oct-18 16:49 UTC. Time now 2017-Nov-25 05:48 UTC.
Position S 28°07' E 154°05'.
Warning: this ship's position is 37 days out of date.

Length 229 m; draft 12.8 m.

Type: Cargo ship. MMSI: 432772000.

Date/timePositionNaut miles runAvg speedWind from/ knotsBaromVisibWave heightAir tempDewpointWater temp
2017-Oct-18 16:49S 28°07' E 154°05'3 8.6
2017-Oct-18 16:30S 28°10' E 154°05'8 8.6
2017-Oct-18 15:35S 28°18' E 154°05'270 8.3
2017-Oct-17 06:50S 32°37' E 152°33'3 9.6
2017-Oct-17 06:30S 32°39' E 152°30'5 9.7
2017-Oct-17 06:00S 32°42' E 152°26'5 9.9
2017-Oct-17 05:30S 32°45' E 152°21'510.1
2017-Oct-17 05:00S 32°48' E 152°16'510.2
2017-Oct-17 04:30S 32°51' E 152°11'510.3
2017-Oct-17 04:00S 32°53' E 152°06'510.8
2017-Oct-17 03:30S 32°55' E 151°60'510.9
2017-Oct-17 03:00S 32°57' E 151°54'4 7.8
2017-Oct-17 02:30S 32°56' E 151°49'3 4.9
2017-Oct-17 02:00S 32°55' E 151°46'2 3.1
2017-Oct-17 01:23S 32°53' E 151°46'0 0.1
2017-Oct-17 00:50S 32°53' E 151°46'0 0.0
2017-Oct-17 00:29S 32°53' E 151°46'0 0.0
2017-Oct-16 23:56S 32°53' E 151°46'0 0.0
2017-Oct-16 23:20S 32°53' E 151°46'0 0.0
2017-Oct-16 22:32S 32°53' E 151°46'0 0.0
2017-Oct-16 22:29S 32°53' E 151°46'0 0.0
2017-Oct-16 21:59S 32°53' E 151°46'0 0.0
2017-Oct-16 21:20S 32°53' E 151°46'0 0.0
2017-Oct-16 20:59S 32°53' E 151°46'0 0.0
2017-Oct-16 20:26S 32°53' E 151°46'0 0.0
2017-Oct-16 19:50S 32°53' E 151°46'0 0.0
2017-Oct-16 19:20S 32°53' E 151°46'0 0.0
2017-Oct-16 18:59S 32°53' E 151°46'0 0.0
2017-Oct-16 18:26S 32°53' E 151°46'0 0.0
2017-Oct-16 17:59S 32°53' E 151°46'0 0.0
2017-Oct-16 17:29S 32°53' E 151°46'0 0.0
2017-Oct-16 16:59S 32°53' E 151°46'0 0.0
2017-Oct-16 16:11S 32°53' E 151°46'0 0.0
2017-Oct-16 15:56S 32°53' E 151°46'0 0.0
2017-Oct-16 15:29S 32°53' E 151°46'0 0.0
2017-Oct-16 14:59S 32°53' E 151°46'0 0.0
2017-Oct-16 14:29S 32°53' E 151°46'0 0.0
2017-Oct-16 13:26S 32°53' E 151°46'0 0.0
2017-Oct-16 12:59S 32°53' E 151°46'0 0.0
2017-Oct-16 12:26S 32°53' E 151°46'0 0.0
2017-Oct-16 11:59S 32°53' E 151°46'0 0.0
2017-Oct-16 11:29S 32°53' E 151°46'0 0.0
2017-Oct-16 10:59S 32°53' E 151°46'0 0.0
2017-Oct-16 10:29S 32°53' E 151°46'0 0.0
2017-Oct-16 10:01S 32°53' E 151°46'1 1.8
2017-Oct-16 09:31S 32°54' E 151°46'2 3.7
2017-Oct-16 09:00S 32°55' E 151°48'4 8.3
2017-Oct-16 08:30S 32°58' E 151°52'3 5.5
2017-Oct-16 08:00S 33°00' E 151°53'3 5.6
2017-Oct-16 07:31S 33°03' E 151°55'3 5.2
2017-Oct-16 07:00S 33°05' E 151°56'1 1.8
2017-Oct-16 06:30S 33°05' E 151°57'1 1.9
2017-Oct-16 06:00S 33°05' E 151°58'2 4.6
2017-Oct-16 05:30S 33°03' E 151°60'510.9
2017-Oct-16 05:01S 32°58' E 151°60'510.7
2017-Oct-16 04:30S 32°54' E 152°04'611.7
2017-Oct-16 04:00S 32°51' E 152°10'611.5
2017-Oct-16 03:31S 32°48' E 152°16'611.7
2017-Oct-16 03:01S 32°44' E 152°22'611.7
2017-Oct-16 02:30S 32°41' E 152°27'611.7
2017-Oct-16 02:01S 32°37' E 152°32'612.1
2017-Oct-16 01:30S 32°34' E 152°38'612.0
2017-Oct-16 00:59S 32°28' E 152°42'23612.6
2017-Oct-15 06:12S 28°41' E 153°55'613.5
2017-Oct-15 05:47S 28°35' E 153°56'514.0
2017-Oct-15 05:24S 28°30' E 153°58'614.3
2017-Oct-15 05:00S 28°25' E 153°60'1213.9
2017-Oct-15 04:10S 28°14' E 154°05'213.0
2017-Oct-15 04:00S 28°12' E 154°05'912.7
2017-Oct-15 03:18S 28°03' E 154°05'412.5
2017-Oct-15 02:59S 27°59' E 154°05'  
Track history (hours):
 
Tides and Currents Weather Stations Pressure Air Temp Water Temp Dewpoint Dewpoint Depression Visibility Wind Speed Wind Dir Waves Ship Positions

Maizuru Bishamon

Last reported at 2017-Oct-18 16:49 UTC. Time now 2017-Nov-25 05:48 UTC.
Position S 28°07' E 154°05'.
Warning: this ship's position is 37 days out of date.

Length 229 m; draft 12.8 m.

Type: Cargo ship. MMSI: 432772000.

Date/timePositionNaut miles runAvg speedWind from/ knotsBaromVisibWave heightAir tempDewpointWater temp
2017-Oct-18 16:49S 28°07' E 154°05'3 8.6
2017-Oct-18 16:30S 28°10' E 154°05'8 8.6
2017-Oct-18 15:35S 28°18' E 154°05'270 8.3
2017-Oct-17 06:50S 32°37' E 152°33'3 9.6
2017-Oct-17 06:30S 32°39' E 152°30'5 9.7
2017-Oct-17 06:00S 32°42' E 152°26'5 9.9
2017-Oct-17 05:30S 32°45' E 152°21'510.1
2017-Oct-17 05:00S 32°48' E 152°16'510.2
2017-Oct-17 04:30S 32°51' E 152°11'510.3
2017-Oct-17 04:00S 32°53' E 152°06'510.8
2017-Oct-17 03:30S 32°55' E 151°60'510.9
2017-Oct-17 03:00S 32°57' E 151°54'4 7.8
2017-Oct-17 02:30S 32°56' E 151°49'3 4.9
2017-Oct-17 02:00S 32°55' E 151°46'2 3.1
2017-Oct-17 01:23S 32°53' E 151°46'0 0.1
2017-Oct-17 00:50S 32°53' E 151°46'0 0.0
2017-Oct-17 00:29S 32°53' E 151°46'0 0.0
2017-Oct-16 23:56S 32°53' E 151°46'0 0.0
2017-Oct-16 23:20S 32°53' E 151°46'0 0.0
2017-Oct-16 22:32S 32°53' E 151°46'0 0.0
2017-Oct-16 22:29S 32°53' E 151°46'0 0.0
2017-Oct-16 21:59S 32°53' E 151°46'0 0.0
2017-Oct-16 21:20S 32°53' E 151°46'0 0.0
2017-Oct-16 20:59S 32°53' E 151°46'0 0.0
2017-Oct-16 20:26S 32°53' E 151°46'0 0.0
2017-Oct-16 19:50S 32°53' E 151°46'0 0.0
2017-Oct-16 19:20S 32°53' E 151°46'0 0.0
2017-Oct-16 18:59S 32°53' E 151°46'0 0.0
2017-Oct-16 18:26S 32°53' E 151°46'0 0.0
2017-Oct-16 17:59S 32°53' E 151°46'0 0.0
2017-Oct-16 17:29S 32°53' E 151°46'0 0.0
2017-Oct-16 16:59S 32°53' E 151°46'0 0.0
2017-Oct-16 16:11S 32°53' E 151°46'0 0.0
2017-Oct-16 15:56S 32°53' E 151°46'0 0.0
2017-Oct-16 15:29S 32°53' E 151°46'0 0.0
2017-Oct-16 14:59S 32°53' E 151°46'0 0.0
2017-Oct-16 14:29S 32°53' E 151°46'0 0.0
2017-Oct-16 13:26S 32°53' E 151°46'0 0.0
2017-Oct-16 12:59S 32°53' E 151°46'0 0.0
2017-Oct-16 12:26S 32°53' E 151°46'0 0.0
2017-Oct-16 11:59S 32°53' E 151°46'0 0.0
2017-Oct-16 11:29S 32°53' E 151°46'0 0.0
2017-Oct-16 10:59S 32°53' E 151°46'0 0.0
2017-Oct-16 10:29S 32°53' E 151°46'0 0.0
2017-Oct-16 10:01S 32°53' E 151°46'1 1.8
2017-Oct-16 09:31S 32°54' E 151°46'2 3.7
2017-Oct-16 09:00S 32°55' E 151°48'4 8.3
2017-Oct-16 08:30S 32°58' E 151°52'3 5.5
2017-Oct-16 08:00S 33°00' E 151°53'3 5.6
2017-Oct-16 07:31S 33°03' E 151°55'3 5.2
2017-Oct-16 07:00S 33°05' E 151°56'1 1.8
2017-Oct-16 06:30S 33°05' E 151°57'1 1.9
2017-Oct-16 06:00S 33°05' E 151°58'2 4.6
2017-Oct-16 05:30S 33°03' E 151°60'510.9
2017-Oct-16 05:01S 32°58' E 151°60'510.7
2017-Oct-16 04:30S 32°54' E 152°04'611.7
2017-Oct-16 04:00S 32°51' E 152°10'611.5
2017-Oct-16 03:31S 32°48' E 152°16'611.7
2017-Oct-16 03:01S 32°44' E 152°22'611.7
2017-Oct-16 02:30S 32°41' E 152°27'611.7
2017-Oct-16 02:01S 32°37' E 152°32'612.1
2017-Oct-16 01:30S 32°34' E 152°38'612.0
2017-Oct-16 00:59S 32°28' E 152°42'23612.6
2017-Oct-15 06:12S 28°41' E 153°55'613.5
2017-Oct-15 05:47S 28°35' E 153°56'514.0
2017-Oct-15 05:24S 28°30' E 153°58'614.3
2017-Oct-15 05:00S 28°25' E 153°60'1213.9
2017-Oct-15 04:10S 28°14' E 154°05'213.0
2017-Oct-15 04:00S 28°12' E 154°05'912.7
2017-Oct-15 03:18S 28°03' E 154°05'412.5
2017-Oct-15 02:59S 27°59' E 154°05'  

Dump ship's entire track history